createdAt,value
2019-02-07T00:01:20.024Z,1.00
2019-02-07T00:04:01.315Z,1.00
2019-02-07T00:06:41.663Z,1.00
2019-02-07T00:09:22.472Z,1.00
2019-02-07T00:12:02.905Z,1.00
2019-02-07T00:14:43.409Z,1.00
2019-02-07T00:17:24.073Z,1.00
2019-02-07T00:20:04.800Z,1.00
2019-02-07T00:22:45.545Z,1.00
2019-02-07T00:25:26.383Z,1.00
2019-02-07T00:28:07.068Z,1.00
2019-02-07T00:30:50.711Z,1.00
2019-02-07T00:33:31.121Z,1.00
2019-02-07T00:36:11.816Z,1.00
2019-02-07T00:38:52.720Z,1.00
2019-02-07T00:41:33.541Z,1.00
2019-02-07T00:44:14.300Z,1.00
2019-02-07T00:46:55.112Z,1.00
2019-02-07T00:49:35.868Z,1.00
2019-02-07T00:52:16.563Z,1.00
2019-02-07T00:54:57.257Z,1.00
2019-02-07T00:57:37.637Z,1.00
2019-02-07T01:00:18.484Z,1.00
2019-02-07T01:02:59.089Z,1.00
2019-02-07T01:05:39.789Z,1.00
2019-02-07T01:08:20.521Z,1.00
2019-02-07T01:11:01.535Z,1.00
2019-02-07T01:13:42.209Z,1.00
2019-02-07T01:16:22.808Z,1.00
2019-02-07T01:19:03.701Z,1.00
2019-02-07T01:21:44.372Z,1.00
2019-02-07T01:24:24.961Z,1.00
2019-02-07T01:27:05.722Z,1.00
2019-02-07T01:29:46.461Z,1.00
2019-02-07T01:32:27.132Z,1.00
2019-02-07T01:35:07.715Z,1.00
2019-02-07T01:37:50.893Z,1.00
2019-02-07T01:40:31.969Z,1.00
2019-02-07T01:43:12.646Z,1.00
2019-02-07T01:45:53.289Z,1.00
2019-02-07T01:48:34.018Z,1.00
2019-02-07T01:51:14.640Z,1.00
2019-02-07T01:53:55.189Z,1.00
2019-02-07T01:56:36.021Z,1.00
2019-02-07T01:59:16.576Z,1.00
2019-02-07T02:01:57.193Z,1.00
2019-02-07T02:04:37.929Z,1.00
2019-02-07T02:07:18.346Z,1.00
2019-02-07T02:09:59.030Z,1.00
2019-02-07T02:12:39.571Z,1.00
2019-02-07T02:15:24.676Z,1.00
2019-02-07T02:18:02.963Z,1.00
2019-02-07T02:20:43.581Z,1.00
2019-02-07T02:23:24.475Z,1.00
2019-02-07T02:26:05.177Z,1.00
2019-02-07T02:28:45.861Z,1.00
2019-02-07T02:31:26.415Z,1.00
2019-02-07T02:34:07.000Z,1.00
2019-02-07T02:36:50.410Z,1.00
2019-02-07T02:39:31.073Z,1.00
2019-02-07T02:42:11.889Z,1.00
2019-02-07T02:44:52.645Z,1.00
2019-02-07T02:47:33.490Z,1.00
2019-02-07T02:50:14.293Z,1.00
2019-02-07T02:52:54.914Z,1.00
2019-02-07T02:55:40.539Z,1.00
2019-02-07T02:58:21.334Z,1.00
2019-02-07T03:01:27.195Z,1.00
2019-02-07T03:04:15.312Z,1.00
2019-02-07T03:07:15.289Z,1.00
2019-02-07T03:10:15.672Z,1.00
2019-02-07T03:13:15.285Z,1.00
2019-02-07T03:16:17.546Z,1.00
2019-02-07T03:19:17.424Z,1.00
2019-02-07T03:22:13.063Z,1.00
2019-02-07T03:25:15.057Z,1.00
2019-02-07T03:28:14.478Z,1.00
2019-02-07T03:31:14.054Z,1.00
2019-02-07T03:34:13.498Z,1.00
2019-02-07T03:37:13.747Z,1.00
2019-02-07T03:40:13.816Z,1.00
2019-02-07T03:43:11.154Z,1.00
2019-02-07T03:46:10.728Z,1.00
2019-02-07T03:48:57.336Z,1.00
2019-02-07T03:51:57.292Z,1.00
2019-02-07T03:54:56.705Z,1.00
2019-02-07T03:57:59.098Z,1.00
2019-02-07T04:00:49.795Z,1.00
2019-02-07T04:03:49.805Z,1.00
2019-02-07T04:06:43.133Z,1.00
2019-02-07T04:09:31.907Z,1.00
2019-02-07T04:12:22.083Z,1.00
2019-02-07T04:15:21.875Z,1.00
2019-02-07T04:18:24.877Z,1.00
2019-02-07T04:21:24.822Z,1.00
2019-02-07T04:24:13.582Z,1.00
2019-02-07T04:27:12.135Z,1.00
2019-02-07T04:30:11.912Z,1.00
2019-02-07T04:33:11.305Z,1.00
2019-02-07T04:36:10.732Z,1.00
2019-02-07T04:39:16.331Z,1.00
2019-02-07T04:42:16.076Z,1.00
2019-02-07T04:45:12.585Z,1.00
2019-02-07T04:48:12.800Z,1.00
2019-02-07T04:51:12.528Z,1.00
2019-02-07T04:54:14.809Z,1.00
2019-02-07T04:57:02.777Z,1.00
2019-02-07T04:59:53.853Z,1.00
2019-02-07T05:02:50.819Z,1.00
2019-02-07T05:05:53.610Z,1.00
2019-02-07T05:08:56.552Z,1.00
2019-02-07T05:11:51.688Z,1.00
2019-02-07T05:14:46.717Z,1.00
2019-02-07T05:17:34.693Z,1.00
2019-02-07T05:20:27.368Z,1.00
2019-02-07T05:23:29.437Z,1.00
2019-02-07T05:26:29.732Z,1.00
2019-02-07T05:29:24.752Z,1.00
2019-02-07T05:32:24.240Z,1.00
2019-02-07T05:35:23.695Z,1.00
2019-02-07T05:38:14.280Z,1.00
2019-02-07T05:41:14.422Z,1.00
2019-02-07T05:44:14.063Z,1.00
2019-02-07T05:47:03.180Z,1.00
2019-02-07T05:50:03.337Z,1.00
2019-02-07T05:53:02.696Z,1.00
2019-02-07T05:56:05.046Z,1.00
2019-02-07T05:59:06.812Z,1.00
2019-02-07T06:02:09.309Z,1.00
2019-02-07T06:05:09.529Z,1.00
2019-02-07T06:08:05.985Z,1.00
2019-02-07T06:10:58.112Z,1.00
2019-02-07T06:13:58.193Z,1.00
2019-02-07T06:17:02.885Z,1.00
2019-02-07T06:19:59.118Z,1.00
2019-02-07T06:22:48.891Z,1.00
2019-02-07T06:25:41.919Z,1.00
2019-02-07T06:28:41.657Z,1.00
2019-02-07T06:31:32.071Z,1.00
2019-02-07T06:34:32.344Z,1.00
2019-02-07T06:37:33.141Z,1.00
2019-02-07T06:40:33.329Z,1.00
2019-02-07T06:43:34.577Z,1.00
2019-02-07T06:46:34.921Z,1.00
2019-02-07T06:49:34.709Z,1.00
2019-02-07T06:52:34.234Z,1.00
2019-02-07T06:55:39.565Z,1.00
2019-02-07T06:58:42.214Z,1.00
2019-02-07T07:01:42.380Z,1.00
2019-02-07T07:04:41.868Z,1.00
2019-02-07T07:07:42.150Z,1.00
2019-02-07T07:10:37.728Z,1.00
2019-02-07T07:13:41.136Z,1.00
2019-02-07T07:16:41.397Z,1.00
2019-02-07T07:19:41.586Z,1.00
2019-02-07T07:22:47.104Z,1.00
2019-02-07T07:25:46.761Z,1.00
2019-02-07T07:28:39.492Z,1.00
2019-02-07T07:31:29.785Z,1.00
2019-02-07T07:34:29.757Z,1.00
2019-02-07T07:37:29.860Z,1.00
2019-02-07T07:40:18.897Z,1.00
2019-02-07T07:43:19.266Z,1.00
2019-02-07T07:46:08.388Z,1.00
2019-02-07T07:49:13.316Z,1.00
2019-02-07T07:52:18.559Z,1.00
2019-02-07T07:55:18.443Z,1.00
2019-02-07T07:58:18.932Z,1.00
2019-02-07T08:01:27.245Z,1.00
2019-02-07T08:04:26.701Z,1.00
2019-02-07T08:07:29.208Z,1.00
2019-02-07T08:10:29.621Z,1.00
2019-02-07T08:13:29.804Z,1.00
2019-02-07T08:16:29.660Z,1.00
2019-02-07T08:19:23.956Z,1.00
2019-02-07T08:22:23.432Z,1.00
2019-02-07T08:25:25.748Z,1.00
2019-02-07T08:28:13.226Z,1.00
2019-02-07T08:31:13.188Z,1.00
2019-02-07T08:34:13.554Z,1.00
2019-02-07T08:37:13.223Z,1.00
2019-02-07T08:40:07.170Z,1.00
2019-02-07T08:45:58.441Z,1.00
2019-02-07T08:49:01.035Z,1.00
2019-02-07T08:55:09.330Z,1.00
2019-02-07T09:01:14.486Z,1.00
2019-02-07T09:04:14.777Z,1.00
2019-02-07T09:07:18.261Z,1.00
2019-02-07T09:10:05.409Z,1.00
2019-02-07T09:15:50.798Z,1.00
2019-02-07T09:24:57.002Z,1.00
2019-02-07T09:31:07.137Z,1.00
2019-02-07T10:12:45.443Z,1.00
2019-02-07T10:18:40.968Z,1.00
2019-02-07T10:21:41.145Z,1.00
2019-02-07T10:24:38.740Z,1.00
2019-02-07T10:30:35.884Z,1.00
2019-02-07T10:33:24.585Z,1.00
2019-02-07T10:39:32.175Z,1.00
2019-02-07T10:42:35.584Z,1.00
2019-02-07T10:45:35.703Z,1.00
2019-02-07T10:48:31.432Z,1.00
2019-02-07T10:54:36.468Z,1.00
2019-02-07T10:57:36.145Z,1.00
2019-02-07T11:00:27.938Z,1.00
2019-02-07T11:03:28.819Z,1.00
2019-02-07T11:06:28.362Z,1.00
2019-02-07T11:09:27.797Z,1.00
2019-02-07T11:12:28.215Z,1.00
2019-02-07T11:15:31.239Z,1.00
2019-02-07T11:18:32.934Z,1.00
2019-02-07T11:21:32.505Z,1.00
2019-02-07T11:24:32.636Z,1.00
2019-02-07T11:27:25.942Z,1.00
2019-02-07T11:30:15.329Z,1.00
2019-02-07T11:33:07.073Z,1.00
2019-02-07T11:36:07.168Z,1.00
2019-02-07T11:39:09.887Z,1.00
2019-02-07T11:42:10.042Z,1.00
2019-02-07T11:45:09.797Z,1.00
2019-02-07T11:48:09.233Z,1.00
2019-02-07T11:51:15.267Z,1.00
2019-02-07T11:54:14.939Z,1.00
2019-02-07T12:00:19.353Z,1.00
2019-02-07T12:03:03.501Z,1.00
2019-02-07T12:05:59.387Z,1.00
2019-02-07T12:08:59.149Z,1.00
2019-02-07T12:11:55.544Z,1.00
2019-02-07T12:14:55.801Z,1.00
2019-02-07T12:17:56.170Z,1.00
2019-02-07T12:20:47.308Z,1.00
2019-02-07T12:23:49.709Z,1.00
2019-02-07T12:26:51.326Z,1.00
2019-02-07T12:29:51.524Z,1.00
2019-02-07T12:32:51.026Z,1.00
2019-02-07T12:35:54.345Z,1.00
2019-02-07T12:38:54.183Z,1.00
2019-02-07T12:41:54.531Z,1.00
2019-02-07T12:44:54.682Z,1.00
2019-02-07T12:47:54.782Z,1.00
2019-02-07T12:51:01.304Z,1.00
2019-02-07T12:54:01.444Z,1.00
2019-02-07T12:56:56.247Z,1.00
2019-02-07T12:59:56.633Z,1.00
2019-02-07T13:02:56.161Z,1.00
2019-02-07T13:05:58.657Z,1.00
2019-02-07T13:08:58.120Z,1.00
2019-02-07T13:12:00.403Z,2.60
2019-02-07T13:14:53.632Z,5.70
2019-02-07T13:17:53.129Z,9.60
2019-02-07T13:20:52.927Z,13.10
2019-02-07T13:23:53.293Z,15.10
2019-02-07T13:26:41.430Z,16.60
2019-02-07T13:29:46.855Z,17.30
2019-02-07T13:32:53.313Z,18.20
2019-02-07T13:41:56.342Z,27.60
2019-02-07T13:44:59.548Z,29.30
2019-02-07T13:47:59.004Z,29.40
2019-02-07T13:50:57.769Z,30.30
2019-02-07T13:53:50.387Z,31.70
2019-02-07T13:56:50.362Z,30.70
2019-02-07T13:59:50.718Z,30.40
2019-02-07T14:02:56.970Z,31.00
2019-02-07T14:05:56.653Z,31.10
2019-02-07T14:08:56.924Z,30.40
2019-02-07T14:11:59.397Z,31.50
2019-02-07T14:14:58.991Z,31.00
2019-02-07T14:17:57.148Z,31.40
2019-02-07T14:20:55.327Z,31.90
2019-02-07T14:23:55.104Z,32.90
2019-02-07T14:26:55.313Z,34.60
2019-02-07T14:29:41.497Z,33.80
2019-02-07T14:32:48.181Z,34.70
2019-02-07T14:41:32.968Z,33.00
2019-02-07T14:47:07.651Z,33.00
2019-02-07T14:58:48.917Z,33.80
2019-02-07T15:01:29.577Z,33.70
2019-02-07T15:04:10.266Z,33.20
2019-02-07T15:06:50.969Z,32.70
2019-02-07T15:09:31.700Z,33.20
2019-02-07T15:12:12.539Z,33.70
2019-02-07T15:14:53.344Z,32.30
2019-02-07T15:17:33.952Z,34.10
2019-02-07T15:20:25.515Z,33.30
2019-02-07T15:22:57.567Z,33.30
2019-02-07T15:25:38.257Z,33.90
2019-02-07T15:28:18.984Z,33.20
2019-02-07T15:30:59.821Z,32.30
2019-02-07T15:33:40.553Z,32.70
2019-02-07T15:36:21.440Z,32.40
2019-02-07T15:39:02.288Z,32.40
2019-02-07T15:41:42.928Z,31.00
2019-02-07T15:44:23.581Z,31.70
2019-02-07T15:47:09.696Z,31.80
2019-02-07T15:49:50.787Z,31.50
2019-02-07T15:52:31.680Z,32.00
2019-02-07T15:57:54.840Z,32.50
2019-02-07T16:03:39.804Z,32.60
2019-02-07T16:06:20.189Z,32.10
2019-02-07T16:09:03.776Z,33.70
2019-02-07T16:11:45.025Z,34.20
2019-02-07T16:17:22.064Z,34.80
2019-02-07T16:20:02.679Z,35.30
2019-02-07T16:22:43.336Z,34.70
2019-02-07T16:25:24.205Z,35.50
2019-02-07T16:28:04.608Z,36.10
2019-02-07T16:30:45.334Z,36.60
2019-02-07T16:33:25.949Z,36.40
2019-02-07T16:36:06.513Z,37.00
2019-02-07T16:38:47.562Z,38.30
2019-02-07T16:41:28.369Z,39.60
2019-02-07T16:44:08.819Z,40.40
2019-02-07T16:46:49.476Z,41.50
2019-02-07T16:49:30.234Z,40.60
2019-02-07T16:52:12.610Z,42.10
2019-02-07T16:54:53.654Z,42.10
2019-02-07T16:57:34.284Z,42.00
2019-02-07T17:00:14.856Z,42.50
2019-02-07T17:02:55.661Z,42.20
2019-02-07T17:05:37.946Z,42.30
2019-02-07T17:08:19.255Z,42.90
2019-02-07T17:11:00.029Z,43.10
2019-02-07T17:13:42.577Z,43.40
2019-02-07T17:16:24.187Z,43.20
2019-02-07T17:19:04.816Z,42.70
2019-02-07T17:21:45.535Z,43.70
2019-02-07T17:24:26.387Z,42.80
2019-02-07T17:27:07.206Z,43.10
2019-02-07T17:29:47.993Z,43.30
2019-02-07T17:32:28.625Z,44.80
2019-02-07T17:35:09.489Z,44.20
2019-02-07T17:37:50.173Z,44.30
2019-02-07T17:40:33.728Z,44.80
2019-02-07T17:43:14.448Z,45.30
2019-02-07T17:45:55.033Z,45.40
2019-02-07T17:48:35.433Z,46.40
2019-02-07T17:51:22.972Z,45.70
2019-02-07T17:53:58.573Z,47.00
2019-02-07T17:56:38.928Z,46.70
2019-02-07T17:59:19.575Z,47.40
2019-02-07T18:02:00.326Z,47.80
2019-02-07T18:04:40.951Z,48.10
2019-02-07T18:07:21.341Z,49.20
2019-02-07T18:10:02.668Z,49.10
2019-02-07T18:12:43.225Z,48.80
2019-02-07T18:15:23.718Z,48.40
2019-02-07T18:18:04.292Z,49.70
2019-02-07T18:20:44.810Z,48.60
2019-02-07T18:23:25.380Z,49.10
2019-02-07T18:26:06.019Z,49.70
2019-02-07T18:28:46.855Z,49.80
2019-02-07T18:31:27.349Z,48.90
2019-02-07T18:34:08.074Z,49.90
2019-02-07T18:36:48.597Z,49.50
2019-02-07T18:39:30.907Z,49.30
2019-02-07T18:42:12.000Z,49.80
2019-02-07T18:44:52.529Z,49.20
2019-02-07T18:47:33.274Z,48.70
2019-02-07T18:50:13.861Z,48.90
2019-02-07T18:52:54.641Z,48.30
2019-02-07T18:55:35.565Z,47.80
2019-02-07T18:58:17.042Z,48.10
2019-02-07T19:00:57.743Z,48.50
2019-02-07T19:03:38.309Z,48.40
2019-02-07T19:06:22.160Z,47.60
2019-02-07T19:09:04.057Z,48.20
2019-02-07T19:11:46.365Z,48.20
2019-02-07T19:14:27.610Z,48.20
2019-02-07T19:17:08.522Z,48.50
2019-02-07T19:19:49.284Z,48.00
2019-02-07T19:22:30.232Z,47.90
2019-02-07T19:25:11.097Z,47.50
2019-02-07T19:27:51.856Z,47.50
2019-02-07T19:30:32.810Z,48.10
2019-02-07T19:33:13.692Z,46.70
2019-02-07T19:35:54.893Z,46.30
2019-02-07T19:38:35.620Z,47.60
2019-02-07T19:41:16.358Z,46.50
2019-02-07T19:43:57.148Z,45.60
2019-02-07T19:46:38.685Z,45.90
2019-02-07T19:49:19.296Z,45.50
2019-02-07T19:52:07.954Z,44.90
2019-02-07T19:54:42.662Z,44.60
2019-02-07T19:57:23.437Z,44.30
2019-02-07T20:00:04.396Z,44.20
2019-02-07T20:02:45.204Z,43.80
2019-02-07T20:08:15.447Z,42.70
2019-02-07T20:10:56.024Z,40.90
2019-02-07T20:13:36.700Z,40.70
2019-02-07T20:16:17.358Z,41.00
2019-02-07T20:18:58.000Z,40.60
2019-02-07T20:21:38.825Z,40.20
2019-02-07T20:24:19.689Z,40.90
2019-02-07T20:27:01.403Z,40.80
2019-02-07T20:29:42.259Z,39.40
2019-02-07T20:32:23.092Z,38.30
2019-02-07T20:35:03.505Z,35.60
2019-02-07T20:37:44.458Z,35.50
2019-02-07T20:40:27.192Z,33.90
2019-02-07T20:43:07.909Z,32.90
2019-02-07T20:45:48.456Z,32.30
2019-02-07T20:48:29.132Z,31.90
2019-02-07T20:51:09.710Z,31.30
2019-02-07T20:53:50.525Z,31.20
2019-02-07T20:56:31.315Z,31.30
2019-02-07T20:59:11.863Z,31.90
2019-02-07T21:01:52.745Z,32.00
2019-02-07T21:04:33.346Z,31.80
2019-02-07T21:07:14.097Z,31.60
2019-02-07T21:09:54.691Z,31.70
2019-02-07T21:12:35.186Z,33.00
2019-02-07T21:15:18.793Z,33.30
2019-02-07T21:17:58.592Z,32.80
2019-02-07T21:20:39.565Z,31.20
2019-02-07T21:23:20.460Z,30.60
2019-02-07T21:26:01.947Z,30.00
2019-02-07T21:28:42.340Z,29.30
2019-02-07T21:31:23.197Z,28.20
2019-02-07T21:34:03.759Z,28.30
2019-02-07T21:39:26.859Z,26.60
2019-02-07T21:42:07.616Z,27.90
2019-02-07T21:44:48.314Z,27.00
2019-02-07T21:47:28.959Z,26.10
2019-02-07T21:50:09.532Z,25.30
2019-02-07T21:52:50.348Z,24.70
2019-02-07T21:55:31.246Z,22.80
2019-02-07T21:58:12.238Z,20.10
2019-02-07T22:00:52.600Z,18.10
2019-02-07T22:03:33.347Z,15.60
2019-02-07T22:06:14.189Z,14.60
2019-02-07T22:08:55.023Z,14.20
2019-02-07T22:11:35.613Z,11.10
2019-02-07T22:14:16.517Z,9.30
2019-02-07T22:16:57.401Z,8.70
2019-02-07T22:19:38.383Z,8.20
2019-02-07T22:22:19.292Z,8.90
2019-02-07T22:24:59.868Z,8.00
2019-02-07T22:27:40.677Z,7.70
2019-02-07T22:30:21.259Z,7.10
2019-02-07T22:33:02.191Z,7.40
2019-02-07T22:35:42.908Z,6.20
2019-02-07T22:38:23.629Z,5.80
2019-02-07T22:41:04.256Z,6.10
2019-02-07T22:43:45.111Z,5.90
2019-02-07T22:46:25.725Z,6.20
2019-02-07T22:49:06.533Z,6.00
2019-02-07T22:51:47.378Z,5.60
2019-02-07T22:54:28.186Z,5.50
2019-02-07T22:57:08.816Z,5.60
2019-02-07T22:59:49.450Z,4.90
2019-02-07T23:02:30.360Z,4.60
2019-02-07T23:05:11.124Z,4.30
2019-02-07T23:07:51.751Z,5.20
2019-02-07T23:10:32.568Z,4.90
2019-02-07T23:13:14.113Z,5.20
2019-02-07T23:15:54.487Z,4.30
2019-02-07T23:18:34.974Z,4.50
2019-02-07T23:21:15.667Z,4.20
2019-02-07T23:23:56.337Z,4.00
2019-02-07T23:26:37.067Z,3.80
2019-02-07T23:29:18.638Z,4.00
2019-02-07T23:31:59.384Z,3.40
2019-02-07T23:34:40.166Z,3.80
2019-02-07T23:37:20.769Z,4.10
2019-02-07T23:40:01.501Z,3.90
2019-02-07T23:42:41.841Z,4.80
2019-02-07T23:45:22.394Z,3.80
2019-02-07T23:48:03.007Z,3.90
2019-02-07T23:50:43.721Z,3.90
2019-02-07T23:53:24.715Z,3.90
2019-02-07T23:56:05.411Z,3.30
2019-02-07T23:58:45.986Z,3.00
